createdAt,value
2018-08-17T00:00:29.600Z,19.73
2018-08-17T00:01:29.584Z,19.76
2018-08-17T00:02:29.576Z,19.76
2018-08-17T00:03:29.569Z,19.74
2018-08-17T00:04:29.563Z,19.71
2018-08-17T00:05:29.557Z,19.65
2018-08-17T00:06:29.553Z,19.63
2018-08-17T00:07:29.545Z,19.59
2018-08-17T00:08:29.533Z,19.66
2018-08-17T00:09:29.531Z,19.56
2018-08-17T00:10:29.517Z,19.55
2018-08-17T00:11:29.516Z,19.55
2018-08-17T00:12:29.502Z,19.61
2018-08-17T00:13:29.499Z,19.58
2018-08-17T00:14:29.492Z,19.59
2018-08-17T00:15:29.484Z,19.59
2018-08-17T00:16:29.474Z,19.55
2018-08-17T00:17:29.466Z,19.61
2018-08-17T00:18:29.468Z,19.54
2018-08-17T00:19:29.458Z,19.59
2018-08-17T00:20:29.445Z,19.63
2018-08-17T00:21:29.440Z,19.59
2018-08-17T00:22:29.431Z,19.48
2018-08-17T00:23:29.423Z,19.39
2018-08-17T00:24:29.419Z,19.56
2018-08-17T00:25:29.410Z,19.47
2018-08-17T00:26:29.397Z,19.44
2018-08-17T00:27:29.394Z,19.46
2018-08-17T00:28:29.382Z,19.41
2018-08-17T00:29:29.378Z,19.43
2018-08-17T00:30:29.376Z,19.43
2018-08-17T00:31:29.364Z,19.41
2018-08-17T00:32:29.352Z,19.33
2018-08-17T00:33:29.345Z,19.37
2018-08-17T00:34:29.342Z,19.36
2018-08-17T00:35:29.337Z,19.37
2018-08-17T00:36:29.326Z,19.43
2018-08-17T00:37:29.317Z,19.41
2018-08-17T00:38:29.313Z,19.36
2018-08-17T00:39:29.306Z,19.39
2018-08-17T00:40:29.295Z,19.36
2018-08-17T00:41:29.289Z,19.43
2018-08-17T00:42:29.288Z,19.36
2018-08-17T00:43:29.273Z,19.41
2018-08-17T00:44:29.260Z,19.40
2018-08-17T00:45:29.258Z,19.36
2018-08-17T00:46:29.270Z,19.33
2018-08-17T00:47:29.241Z,19.41
2018-08-17T00:48:29.236Z,19.41
2018-08-17T00:49:29.229Z,19.43
2018-08-17T00:50:29.266Z,19.43
2018-08-17T00:51:29.213Z,19.39
2018-08-17T00:52:29.207Z,19.29
2018-08-17T00:53:29.195Z,19.40
2018-08-17T00:54:29.200Z,19.37
2018-08-17T00:55:29.185Z,19.39
2018-08-17T00:56:29.176Z,19.29
2018-08-17T00:57:29.169Z,19.36
2018-08-17T00:58:29.166Z,19.28
2018-08-17T00:59:29.148Z,19.32
2018-08-17T01:00:29.140Z,19.25
2018-08-17T01:01:29.133Z,19.21
2018-08-17T01:02:29.126Z,19.26
2018-08-17T01:03:29.123Z,19.25
2018-08-17T01:04:29.114Z,19.25
2018-08-17T01:05:29.106Z,19.16
2018-08-17T01:06:29.100Z,19.19
2018-08-17T01:07:29.093Z,19.16
2018-08-17T01:08:29.084Z,19.16
2018-08-17T01:09:29.073Z,19.23
2018-08-17T01:10:29.065Z,19.13
2018-08-17T01:11:29.059Z,19.10
2018-08-17T01:12:29.056Z,19.14
2018-08-17T01:13:29.049Z,19.08
2018-08-17T01:14:29.039Z,19.18
2018-08-17T01:15:29.032Z,19.08
2018-08-17T01:16:29.020Z,19.02
2018-08-17T01:17:29.010Z,19.02
2018-08-17T01:18:29.011Z,18.98
2018-08-17T01:19:28.996Z,18.94
2018-08-17T01:20:28.991Z,18.94
2018-08-17T01:21:28.981Z,18.92
2018-08-17T01:22:28.973Z,19.00
2018-08-17T01:23:28.968Z,18.90
2018-08-17T01:24:28.963Z,18.88
2018-08-17T01:25:28.954Z,18.90
2018-08-17T01:26:28.947Z,18.91
2018-08-17T01:27:28.939Z,18.87
2018-08-17T01:28:28.932Z,18.90
2018-08-17T01:29:28.918Z,18.88
2018-08-17T01:30:28.912Z,18.92
2018-08-17T01:31:28.907Z,18.91
2018-08-17T01:32:28.895Z,18.90
2018-08-17T01:33:28.889Z,18.85
2018-08-17T01:34:28.881Z,18.88
2018-08-17T01:35:28.877Z,18.91
2018-08-17T01:36:28.872Z,18.85
2018-08-17T01:37:28.865Z,18.70
2018-08-17T01:38:28.856Z,18.70
2018-08-17T01:39:28.840Z,18.58
2018-08-17T01:40:28.832Z,18.55
2018-08-17T01:41:28.830Z,18.50
2018-08-17T01:42:28.822Z,18.51
2018-08-17T01:43:28.808Z,18.47
2018-08-17T01:44:28.806Z,18.48
2018-08-17T01:45:28.799Z,18.45
2018-08-17T01:46:28.794Z,18.57
2018-08-17T01:47:28.783Z,18.52
2018-08-17T01:48:28.775Z,18.51
2018-08-17T01:49:28.763Z,18.54
2018-08-17T01:50:28.759Z,18.60
2018-08-17T01:51:28.750Z,18.63
2018-08-17T01:52:28.743Z,18.57
2018-08-17T01:53:28.734Z,18.54
2018-08-17T01:54:28.730Z,18.63
2018-08-17T01:55:28.718Z,18.57
2018-08-17T01:56:28.709Z,18.63
2018-08-17T01:57:28.705Z,18.58
2018-08-17T01:58:28.701Z,18.57
2018-08-17T01:59:28.683Z,18.67
2018-08-17T02:00:28.677Z,18.57
2018-08-17T02:01:28.668Z,18.66
2018-08-17T02:02:28.657Z,18.55
2018-08-17T02:03:28.655Z,18.58
2018-08-17T02:04:28.644Z,18.60
2018-08-17T02:05:28.636Z,18.57
2018-08-17T02:06:28.632Z,18.52
2018-08-17T02:07:28.618Z,18.55
2018-08-17T02:08:28.612Z,18.45
2018-08-17T02:09:28.606Z,18.50
2018-08-17T02:10:28.596Z,18.44
2018-08-17T02:11:28.587Z,18.47
2018-08-17T02:12:28.587Z,18.41
2018-08-17T02:13:28.577Z,18.42
2018-08-17T02:14:28.577Z,18.47
2018-08-17T02:15:28.561Z,18.36
2018-08-17T02:16:28.555Z,18.35
2018-08-17T02:17:28.539Z,18.32
2018-08-17T02:18:28.537Z,18.44
2018-08-17T02:19:28.522Z,18.36
2018-08-17T02:20:28.518Z,18.30
2018-08-17T02:21:28.510Z,18.36
2018-08-17T02:22:28.504Z,18.32
2018-08-17T02:23:28.497Z,18.37
2018-08-17T02:24:28.620Z,18.41
2018-08-17T02:25:28.477Z,18.42
2018-08-17T02:26:28.475Z,18.37
2018-08-17T02:27:28.466Z,18.42
2018-08-17T02:28:28.450Z,18.39
2018-08-17T02:29:28.458Z,18.41
2018-08-17T02:30:28.441Z,18.39
2018-08-17T02:31:28.428Z,18.41
2018-08-17T02:32:28.423Z,18.42
2018-08-17T02:33:28.412Z,18.39
2018-08-17T02:34:28.405Z,18.41
2018-08-17T02:35:28.402Z,18.39
2018-08-17T02:36:28.388Z,18.41
2018-08-17T02:37:28.387Z,18.36
2018-08-17T02:38:28.372Z,18.37
2018-08-17T02:39:28.369Z,18.33
2018-08-17T02:40:28.355Z,18.35
2018-08-17T02:41:28.352Z,18.37
2018-08-17T02:42:28.342Z,18.32
2018-08-17T02:43:28.330Z,18.33
2018-08-17T02:44:28.322Z,18.32
2018-08-17T02:45:28.318Z,18.26
2018-08-17T02:46:28.307Z,18.32
2018-08-17T02:47:28.302Z,18.29
2018-08-17T02:48:28.295Z,18.18
2018-08-17T02:49:28.284Z,18.17
2018-08-17T02:50:28.278Z,18.11
2018-08-17T02:51:28.268Z,18.15
2018-08-17T02:52:28.265Z,18.08
2018-08-17T02:53:28.252Z,18.08
2018-08-17T02:54:28.249Z,18.03
2018-08-17T02:55:28.238Z,17.96
2018-08-17T02:56:28.228Z,17.96
2018-08-17T02:57:28.220Z,17.95
2018-08-17T02:58:28.209Z,17.93
2018-08-17T02:59:28.262Z,17.99
2018-08-17T03:00:28.198Z,17.93
2018-08-17T03:01:28.199Z,17.96
2018-08-17T03:02:28.179Z,18.03
2018-08-17T03:03:28.182Z,18.03
2018-08-17T03:04:28.162Z,17.96
2018-08-17T03:05:28.159Z,17.95
2018-08-17T03:06:28.154Z,17.97
2018-08-17T03:07:28.137Z,17.95
2018-08-17T03:08:28.133Z,17.95
2018-08-17T03:09:28.128Z,17.93
2018-08-17T03:10:28.117Z,17.90
2018-08-17T03:11:28.104Z,17.92
2018-08-17T03:12:28.098Z,17.86
2018-08-17T03:13:28.093Z,17.89
2018-08-17T03:14:28.091Z,17.78
2018-08-17T03:15:28.077Z,17.71
2018-08-17T03:16:28.067Z,17.72
2018-08-17T03:17:28.059Z,17.74
2018-08-17T03:18:28.054Z,17.72
2018-08-17T03:19:28.044Z,17.79
2018-08-17T03:20:28.035Z,17.75
2018-08-17T03:21:28.030Z,17.78
2018-08-17T03:22:28.012Z,17.71
2018-08-17T03:23:28.006Z,17.74
2018-08-17T03:24:28.001Z,17.78
2018-08-17T03:25:27.993Z,17.86
2018-08-17T03:26:27.980Z,17.81
2018-08-17T03:27:27.970Z,17.92
2018-08-17T03:28:27.967Z,17.87
2018-08-17T03:29:27.956Z,17.90
2018-08-17T03:30:27.950Z,17.84
2018-08-17T03:31:27.943Z,17.89
2018-08-17T03:32:27.933Z,17.89
2018-08-17T03:33:27.924Z,17.87
2018-08-17T03:34:27.913Z,17.86
2018-08-17T03:35:27.912Z,17.89
2018-08-17T03:36:27.898Z,17.93
2018-08-17T03:37:27.895Z,17.90
2018-08-17T03:38:27.886Z,17.86
2018-08-17T03:39:27.877Z,17.87
2018-08-17T03:40:27.911Z,17.87
2018-08-17T03:41:27.850Z,17.82
2018-08-17T03:42:27.848Z,17.78
2018-08-17T03:43:27.835Z,17.81
2018-08-17T03:44:27.830Z,17.90
2018-08-17T03:45:27.828Z,17.78
2018-08-17T03:46:27.818Z,17.78
2018-08-17T03:47:27.806Z,17.82
2018-08-17T03:48:27.795Z,17.75
2018-08-17T03:49:27.789Z,17.77
2018-08-17T03:50:27.778Z,17.70
2018-08-17T03:51:27.773Z,17.74
2018-08-17T03:52:27.764Z,17.72
2018-08-17T03:53:27.754Z,17.75
2018-08-17T03:54:27.745Z,17.68
2018-08-17T03:55:27.738Z,17.62
2018-08-17T03:56:27.724Z,17.63
2018-08-17T03:57:27.722Z,17.56
2018-08-17T03:58:27.714Z,17.64
2018-08-17T03:59:27.702Z,17.58
2018-08-17T04:00:27.694Z,17.56
2018-08-17T04:01:27.717Z,17.56
2018-08-17T04:02:27.680Z,17.52
2018-08-17T04:03:27.676Z,17.59
2018-08-17T04:04:27.658Z,17.62
2018-08-17T04:05:27.663Z,17.56
2018-08-17T04:06:27.647Z,17.63
2018-08-17T04:07:27.637Z,17.68
2018-08-17T04:08:27.627Z,17.68
2018-08-17T04:09:27.627Z,17.75
2018-08-17T04:10:27.609Z,17.72
2018-08-17T04:11:27.601Z,17.64
2018-08-17T04:12:27.601Z,17.68
2018-08-17T04:13:27.586Z,17.71
2018-08-17T04:14:27.574Z,17.68
2018-08-17T04:15:27.589Z,17.59
2018-08-17T04:16:27.562Z,17.71
2018-08-17T04:17:27.546Z,17.68
2018-08-17T04:18:27.540Z,17.70
2018-08-17T04:19:27.535Z,17.68
2018-08-17T04:20:27.525Z,17.71
2018-08-17T04:21:27.519Z,17.66
2018-08-17T04:22:27.509Z,17.66
2018-08-17T04:23:27.502Z,17.66
2018-08-17T04:24:27.488Z,17.62
2018-08-17T04:25:27.484Z,17.71
2018-08-17T04:26:27.475Z,17.63
2018-08-17T04:27:27.469Z,17.63
2018-08-17T04:28:27.457Z,17.63
2018-08-17T04:29:27.449Z,17.66
2018-08-17T04:30:27.443Z,17.66
2018-08-17T04:31:27.440Z,17.68
2018-08-17T04:32:27.422Z,17.63
2018-08-17T04:33:27.421Z,17.63
2018-08-17T04:34:27.410Z,17.63
2018-08-17T04:35:30.114Z,17.58
2018-08-17T04:36:27.393Z,17.62
2018-08-17T04:37:27.380Z,17.63
2018-08-17T04:38:27.376Z,17.54
2018-08-17T04:39:27.369Z,17.56
2018-08-17T04:40:27.358Z,17.49
2018-08-17T04:41:27.346Z,17.54
2018-08-17T04:42:27.347Z,17.54
2018-08-17T04:43:27.337Z,17.54
2018-08-17T04:44:27.324Z,17.55
2018-08-17T04:45:27.321Z,17.41
2018-08-17T04:46:27.308Z,17.43
2018-08-17T04:47:27.302Z,17.43
2018-08-17T04:48:27.291Z,17.52
2018-08-17T04:49:27.287Z,17.46
2018-08-17T04:50:27.275Z,17.38
2018-08-17T04:51:27.262Z,17.48
2018-08-17T04:52:27.249Z,17.43
2018-08-17T04:53:27.247Z,17.48
2018-08-17T04:54:27.236Z,17.46
2018-08-17T04:55:27.231Z,17.55
2018-08-17T04:56:27.221Z,17.52
2018-08-17T04:57:27.213Z,17.56
2018-08-17T04:58:27.207Z,17.58
2018-08-17T04:59:27.197Z,17.62
2018-08-17T05:00:27.189Z,17.63
2018-08-17T05:01:27.175Z,17.58
2018-08-17T05:02:27.173Z,17.58
2018-08-17T05:03:27.182Z,17.63
2018-08-17T05:04:27.150Z,17.70
2018-08-17T05:05:27.142Z,17.68
2018-08-17T05:06:27.134Z,17.70
2018-08-17T05:07:27.133Z,17.68
2018-08-17T05:08:27.119Z,17.72
2018-08-17T05:09:27.111Z,17.71
2018-08-17T05:10:27.105Z,17.72
2018-08-17T05:11:27.099Z,17.72
2018-08-17T05:12:27.081Z,17.75
2018-08-17T05:13:27.075Z,17.72
2018-08-17T05:14:27.069Z,17.71
2018-08-17T05:15:27.060Z,17.70
2018-08-17T05:16:27.048Z,17.74
2018-08-17T05:17:27.044Z,17.75
2018-08-17T05:18:27.036Z,17.70
2018-08-17T05:19:27.023Z,17.74
2018-08-17T05:20:27.019Z,17.74
2018-08-17T05:21:27.041Z,17.74
2018-08-17T05:22:26.999Z,17.70
2018-08-17T05:23:27.058Z,17.72
2018-08-17T05:24:26.983Z,17.74
2018-08-17T05:25:26.978Z,17.70
2018-08-17T05:26:26.968Z,17.70
2018-08-17T05:27:26.955Z,17.64
2018-08-17T05:28:26.954Z,17.74
2018-08-17T05:29:26.941Z,17.74
2018-08-17T05:30:26.926Z,17.75
2018-08-17T05:31:26.925Z,17.71
2018-08-17T05:32:26.914Z,17.72
2018-08-17T05:33:26.907Z,17.71
2018-08-17T05:34:26.903Z,17.72
2018-08-17T05:35:26.890Z,17.71
2018-08-17T05:36:26.888Z,17.77
2018-08-17T05:37:26.871Z,17.71
2018-08-17T05:38:26.864Z,17.74
2018-08-17T05:39:26.849Z,17.75
2018-08-17T05:40:26.849Z,17.74
2018-08-17T05:41:26.833Z,17.71
2018-08-17T05:42:26.827Z,17.71
2018-08-17T05:43:26.819Z,17.70
2018-08-17T05:44:26.813Z,17.72
2018-08-17T05:45:26.809Z,17.75
2018-08-17T05:46:26.791Z,17.71
2018-08-17T05:47:26.805Z,17.75
2018-08-17T05:48:26.779Z,17.79
2018-08-17T05:49:26.776Z,17.78
2018-08-17T05:50:26.763Z,17.78
2018-08-17T05:51:26.759Z,17.84
2018-08-17T05:52:26.746Z,17.89
2018-08-17T05:53:26.735Z,17.92
2018-08-17T05:54:26.731Z,17.95
2018-08-17T05:55:26.761Z,17.81
2018-08-17T05:56:26.712Z,17.92
2018-08-17T05:57:26.705Z,17.93
2018-08-17T05:58:26.691Z,17.92
2018-08-17T05:59:26.696Z,17.95
2018-08-17T06:00:26.673Z,18.11
2018-08-17T06:01:26.686Z,18.02
2018-08-17T06:02:26.657Z,18.00
2018-08-17T06:03:26.652Z,18.07
2018-08-17T06:04:26.646Z,18.10
2018-08-17T06:05:26.636Z,18.11
2018-08-17T06:06:26.628Z,18.11
2018-08-17T06:07:26.622Z,18.11
2018-08-17T06:08:26.606Z,18.10
2018-08-17T06:09:26.600Z,18.08
2018-08-17T06:10:26.592Z,18.12
2018-08-17T06:11:26.700Z,18.11
2018-08-17T06:12:26.573Z,18.10
2018-08-17T06:13:26.567Z,18.11
2018-08-17T06:14:26.558Z,18.10
2018-08-17T06:15:26.549Z,18.08
2018-08-17T06:16:26.541Z,18.12
2018-08-17T06:17:26.533Z,18.12
2018-08-17T06:18:26.526Z,18.11
2018-08-17T06:19:26.514Z,18.23
2018-08-17T06:20:26.506Z,18.17
2018-08-17T06:21:26.500Z,18.21
2018-08-17T06:22:26.492Z,18.27
2018-08-17T06:23:26.482Z,18.29
2018-08-17T06:24:26.472Z,18.26
2018-08-17T06:25:26.465Z,18.37
2018-08-17T06:26:26.461Z,18.42
2018-08-17T06:27:26.451Z,18.51
2018-08-17T06:28:26.440Z,18.57
2018-08-17T06:29:26.431Z,18.66
2018-08-17T06:30:26.431Z,18.78
2018-08-17T06:31:26.426Z,18.90
2018-08-17T06:32:26.406Z,18.94
2018-08-17T06:33:26.394Z,19.04
2018-08-17T06:34:26.393Z,19.18
2018-08-17T06:35:26.389Z,19.33
2018-08-17T06:36:26.369Z,19.54
2018-08-17T06:37:26.440Z,19.54
2018-08-17T06:38:26.358Z,19.68
2018-08-17T06:39:26.350Z,19.65
2018-08-17T06:40:26.346Z,19.74
2018-08-17T06:41:26.369Z,19.76
2018-08-17T06:42:26.323Z,19.83
2018-08-17T06:43:26.321Z,19.88
2018-08-17T06:44:26.313Z,19.96
2018-08-17T06:45:26.301Z,20.06
2018-08-17T06:46:26.297Z,20.03
2018-08-17T06:47:26.293Z,20.10
2018-08-17T06:48:26.279Z,19.96
2018-08-17T06:49:26.269Z,20.14
2018-08-17T06:50:26.261Z,20.24
2018-08-17T06:51:26.254Z,20.20
2018-08-17T06:52:26.244Z,20.13
2018-08-17T06:53:26.239Z,20.17
2018-08-17T06:54:26.230Z,20.10
2018-08-17T06:55:26.223Z,20.11
2018-08-17T06:56:26.221Z,20.02
2018-08-17T06:57:26.206Z,20.10
2018-08-17T06:58:26.200Z,19.98
2018-08-17T06:59:26.199Z,19.98
2018-08-17T07:00:26.191Z,20.03
2018-08-17T07:01:26.179Z,19.88
2018-08-17T07:02:27.190Z,19.99
2018-08-17T07:03:26.163Z,19.88
2018-08-17T07:04:26.159Z,19.91
2018-08-17T07:05:26.145Z,19.84
2018-08-17T07:06:26.140Z,19.77
2018-08-17T07:07:26.148Z,19.77
2018-08-17T07:08:26.125Z,19.76
2018-08-17T07:09:26.182Z,19.78
2018-08-17T07:10:26.114Z,19.69
2018-08-17T07:11:26.107Z,19.66
2018-08-17T07:12:26.096Z,19.65
2018-08-17T07:13:26.092Z,19.65
2018-08-17T07:14:26.091Z,19.62
2018-08-17T07:15:26.070Z,19.66
2018-08-17T07:16:26.063Z,19.83
2018-08-17T07:17:26.054Z,19.80
2018-08-17T07:18:26.050Z,19.86
2018-08-17T07:19:26.043Z,19.95
2018-08-17T07:20:26.034Z,20.14
2018-08-17T07:21:26.031Z,20.20
2018-08-17T07:22:26.024Z,20.28
2018-08-17T07:23:26.017Z,20.35
2018-08-17T07:24:25.997Z,20.52
2018-08-17T07:25:25.997Z,20.52
2018-08-17T07:26:25.992Z,20.61
2018-08-17T07:27:25.984Z,20.70
2018-08-17T07:28:25.976Z,20.84
2018-08-17T07:29:25.967Z,20.88
2018-08-17T07:30:25.962Z,20.97
2018-08-17T07:31:25.952Z,21.10
2018-08-17T07:32:25.940Z,21.13
2018-08-17T07:33:25.936Z,21.21
2018-08-17T07:34:25.930Z,21.29
2018-08-17T07:35:25.924Z,21.38
2018-08-17T07:36:25.914Z,21.43
2018-08-17T07:37:26.510Z,21.44
2018-08-17T07:38:25.908Z,21.58
2018-08-17T07:39:25.899Z,21.65
2018-08-17T07:40:25.883Z,21.71
2018-08-17T07:41:25.879Z,21.82
2018-08-17T07:42:25.872Z,21.98
2018-08-17T07:43:25.866Z,21.99
2018-08-17T07:44:25.862Z,22.02
2018-08-17T07:45:25.852Z,22.03
2018-08-17T07:46:25.850Z,22.09
2018-08-17T07:47:25.837Z,22.15
2018-08-17T07:48:25.834Z,22.21
2018-08-17T07:49:25.824Z,22.24
2018-08-17T07:50:25.820Z,22.35
2018-08-17T07:51:25.807Z,22.40
2018-08-17T07:52:25.801Z,22.31
2018-08-17T07:53:25.800Z,22.43
2018-08-17T07:54:25.791Z,22.58
2018-08-17T07:55:25.787Z,22.70
2018-08-17T07:56:25.773Z,22.76
2018-08-17T07:57:25.771Z,22.83
2018-08-17T07:58:25.764Z,22.82
2018-08-17T07:59:25.759Z,22.88
2018-08-17T08:00:25.758Z,22.90
2018-08-17T08:01:25.744Z,23.02
2018-08-17T08:02:25.734Z,23.12
2018-08-17T08:03:25.736Z,23.13
2018-08-17T08:04:25.724Z,23.17
2018-08-17T08:05:25.722Z,23.19
2018-08-17T08:06:25.719Z,23.05
2018-08-17T08:07:25.705Z,23.09
2018-08-17T08:08:25.703Z,23.13
2018-08-17T08:09:25.692Z,23.17
2018-08-17T08:10:25.687Z,23.22
2018-08-17T08:11:25.679Z,23.13
2018-08-17T08:12:25.675Z,23.12
2018-08-17T08:13:25.668Z,23.13
2018-08-17T08:14:25.660Z,23.16
2018-08-17T08:15:25.659Z,23.05
2018-08-17T08:16:25.645Z,23.10
2018-08-17T08:17:25.645Z,22.98
2018-08-17T08:18:25.639Z,22.95
2018-08-17T08:19:25.630Z,23.02
2018-08-17T08:20:25.772Z,22.97
2018-08-17T08:21:25.621Z,22.83
2018-08-17T08:22:25.616Z,22.88
2018-08-17T08:23:25.606Z,23.02
2018-08-17T08:24:25.605Z,22.95
2018-08-17T08:25:25.594Z,23.12
2018-08-17T08:26:25.590Z,23.02
2018-08-17T08:27:25.588Z,23.12
2018-08-17T08:28:25.580Z,23.23
2018-08-17T08:29:25.567Z,23.42
2018-08-17T08:30:25.561Z,23.50
2018-08-17T08:31:25.553Z,23.58
2018-08-17T08:32:25.602Z,23.70
2018-08-17T08:33:25.544Z,23.79
2018-08-17T08:34:25.540Z,23.80
2018-08-17T08:35:25.536Z,23.88
2018-08-17T08:36:25.529Z,23.91
2018-08-17T08:37:25.522Z,23.98
2018-08-17T08:38:25.520Z,23.88
2018-08-17T08:39:25.516Z,23.94
2018-08-17T08:40:25.506Z,23.90
2018-08-17T08:41:25.506Z,23.98
2018-08-17T08:42:25.498Z,23.93
2018-08-17T08:43:25.485Z,23.95
2018-08-17T08:44:25.479Z,23.91
2018-08-17T08:45:25.482Z,24.02
2018-08-17T08:46:25.471Z,24.06
2018-08-17T08:47:25.467Z,24.09
2018-08-17T08:48:25.479Z,24.18
2018-08-17T08:49:25.455Z,24.16
2018-08-17T08:50:25.449Z,24.02
2018-08-17T08:51:25.444Z,23.87
2018-08-17T08:52:25.435Z,23.66
2018-08-17T08:53:25.434Z,23.70
2018-08-17T08:54:25.432Z,23.63
2018-08-17T08:55:25.424Z,23.55
2018-08-17T08:56:25.418Z,23.54
2018-08-17T08:57:25.407Z,23.50
2018-08-17T08:58:25.410Z,23.35
2018-08-17T08:59:25.395Z,23.36
2018-08-17T09:00:25.390Z,23.23
2018-08-17T09:01:25.389Z,23.09
2018-08-17T09:02:25.379Z,23.05
2018-08-17T09:03:25.378Z,23.13
2018-08-17T09:04:25.366Z,23.20
2018-08-17T09:05:25.363Z,23.22
2018-08-17T09:06:25.356Z,23.40
2018-08-17T09:07:25.355Z,23.51
2018-08-17T09:08:25.345Z,23.61
2018-08-17T09:09:25.341Z,23.78
2018-08-17T09:10:25.332Z,23.80
2018-08-17T09:11:25.330Z,23.88
2018-08-17T09:12:25.326Z,23.85
2018-08-17T09:13:25.320Z,23.85
2018-08-17T09:14:25.312Z,23.97
2018-08-17T09:15:25.307Z,23.87
2018-08-17T09:16:25.299Z,23.73
2018-08-17T09:17:25.293Z,23.85
2018-08-17T09:18:25.294Z,23.78
2018-08-17T09:19:25.293Z,23.87
2018-08-17T09:20:25.356Z,23.87
2018-08-17T09:21:25.270Z,24.03
2018-08-17T09:22:25.268Z,24.08
2018-08-17T09:23:25.260Z,24.22
2018-08-17T09:24:25.281Z,24.24
2018-08-17T09:25:25.249Z,24.25
2018-08-17T09:26:25.246Z,24.27
2018-08-17T09:27:25.242Z,24.10
2018-08-17T09:28:25.237Z,24.03
2018-08-17T09:29:25.227Z,23.90
2018-08-17T09:30:25.221Z,23.97
2018-08-17T09:31:25.216Z,23.98
2018-08-17T09:32:25.217Z,24.02
2018-08-17T09:33:25.202Z,23.90
2018-08-17T09:34:25.204Z,23.84
2018-08-17T09:35:25.196Z,23.91
2018-08-17T09:36:25.187Z,24.06
2018-08-17T09:37:25.185Z,24.15
2018-08-17T09:38:25.187Z,24.16
2018-08-17T09:39:25.167Z,24.27
2018-08-17T09:40:25.166Z,24.40
2018-08-17T09:41:25.154Z,24.52
2018-08-17T09:42:25.155Z,24.57
2018-08-17T09:43:25.144Z,24.60
2018-08-17T09:44:25.156Z,24.69
2018-08-17T09:45:25.138Z,24.67
2018-08-17T09:46:25.125Z,24.76
2018-08-17T09:47:25.130Z,24.83
2018-08-17T09:48:25.125Z,24.88
2018-08-17T09:49:25.116Z,24.98
2018-08-17T09:50:25.112Z,25.18
2018-08-17T09:51:25.201Z,25.24
2018-08-17T09:52:25.099Z,25.25
2018-08-17T09:53:25.095Z,25.33
2018-08-17T09:54:25.092Z,25.28
2018-08-17T09:55:25.084Z,25.17
2018-08-17T09:56:25.092Z,25.33
2018-08-17T09:57:25.119Z,25.25
2018-08-17T09:58:25.079Z,25.18
2018-08-17T09:59:25.067Z,25.23
2018-08-17T10:00:25.064Z,25.32
2018-08-17T10:01:25.052Z,25.33
2018-08-17T10:02:25.044Z,25.38
2018-08-17T10:03:25.043Z,25.39
2018-08-17T10:04:25.037Z,25.50
2018-08-17T10:05:25.031Z,25.45
2018-08-17T10:06:25.035Z,25.42
2018-08-17T10:07:25.023Z,25.33
2018-08-17T10:08:25.022Z,25.36
2018-08-17T10:09:25.013Z,25.36
2018-08-17T10:10:25.009Z,25.42
2018-08-17T10:11:25.004Z,25.54
2018-08-17T10:12:25.000Z,25.47
2018-08-17T10:13:24.996Z,25.47
2018-08-17T10:14:24.990Z,25.42
2018-08-17T10:15:24.982Z,25.40
2018-08-17T10:16:24.983Z,25.47
2018-08-17T10:17:24.979Z,25.55
2018-08-17T10:18:24.974Z,25.58
2018-08-17T10:19:24.968Z,25.60
2018-08-17T10:20:24.959Z,25.70
2018-08-17T10:21:25.136Z,25.58
2018-08-17T10:22:24.950Z,25.65
2018-08-17T10:23:24.943Z,25.67
2018-08-17T10:24:24.938Z,25.60
2018-08-17T10:25:24.935Z,25.75
2018-08-17T10:26:24.936Z,25.75
2018-08-17T10:27:24.927Z,25.73
2018-08-17T10:28:24.918Z,25.85
2018-08-17T10:29:24.914Z,25.88
2018-08-17T10:30:24.916Z,25.90
2018-08-17T10:31:24.906Z,25.94
2018-08-17T10:32:24.902Z,25.92
2018-08-17T10:33:24.896Z,25.97
2018-08-17T10:34:24.892Z,25.98
2018-08-17T10:35:24.887Z,26.01
2018-08-17T10:36:24.881Z,26.02
2018-08-17T10:37:24.879Z,26.25
2018-08-17T10:38:24.875Z,26.15
2018-08-17T10:39:24.873Z,26.29
2018-08-17T10:40:24.865Z,26.30
2018-08-17T10:41:24.864Z,26.37
2018-08-17T10:42:24.859Z,26.44
2018-08-17T10:43:24.851Z,26.50
2018-08-17T10:44:24.845Z,26.48
2018-08-17T10:45:24.843Z,26.50
2018-08-17T10:46:24.840Z,26.54
2018-08-17T10:47:24.832Z,26.51
2018-08-17T10:48:24.832Z,26.60
2018-08-17T10:49:24.826Z,26.69
2018-08-17T10:50:24.821Z,26.70
2018-08-17T10:51:24.820Z,26.69
2018-08-17T10:52:24.815Z,26.65
2018-08-17T10:53:24.805Z,26.67
2018-08-17T10:54:24.807Z,26.81
2018-08-17T10:55:24.831Z,26.91
2018-08-17T10:56:24.794Z,26.81
2018-08-17T10:57:24.814Z,26.88
2018-08-17T10:58:24.789Z,26.97
2018-08-17T10:59:24.783Z,27.04
2018-08-17T11:00:24.779Z,26.91
2018-08-17T11:01:24.773Z,26.94
2018-08-17T11:02:24.771Z,26.82
2018-08-17T11:03:24.770Z,26.75
2018-08-17T11:04:24.761Z,26.65
2018-08-17T11:05:24.760Z,26.65
2018-08-17T11:06:24.753Z,26.66
2018-08-17T11:07:24.749Z,26.76
2018-08-17T11:08:24.744Z,26.73
2018-08-17T11:09:24.747Z,26.72
2018-08-17T11:10:24.737Z,26.72
2018-08-17T11:11:24.738Z,26.85
2018-08-17T11:12:24.730Z,26.81
2018-08-17T11:13:24.731Z,26.82
2018-08-17T11:14:24.731Z,26.82
2018-08-17T11:15:24.717Z,26.76
2018-08-17T11:16:24.713Z,26.88
2018-08-17T11:17:24.710Z,26.87
2018-08-17T11:18:24.703Z,26.91
2018-08-17T11:19:24.703Z,27.03
2018-08-17T11:20:24.697Z,27.02
2018-08-17T11:21:24.697Z,27.07
2018-08-17T11:22:24.689Z,27.04
2018-08-17T11:23:24.684Z,27.14
2018-08-17T11:24:24.686Z,27.19
2018-08-17T11:25:24.674Z,27.18
2018-08-17T11:26:24.677Z,27.36
2018-08-17T11:27:24.669Z,27.46
2018-08-17T11:28:24.660Z,27.44
2018-08-17T11:29:24.663Z,27.37
2018-08-17T11:30:24.661Z,27.41
2018-08-17T11:31:24.652Z,27.39
2018-08-17T11:32:24.654Z,27.55
2018-08-17T11:33:24.652Z,27.51
2018-08-17T11:34:24.737Z,27.62
2018-08-17T11:35:24.640Z,27.70
2018-08-17T11:36:24.643Z,27.66
2018-08-17T11:37:24.639Z,27.63
2018-08-17T11:38:24.628Z,27.72
2018-08-17T11:39:24.627Z,27.62
2018-08-17T11:40:24.621Z,27.79
2018-08-17T11:41:24.655Z,27.79
2018-08-17T11:42:24.617Z,27.92
2018-08-17T11:43:24.611Z,27.87
2018-08-17T11:44:24.608Z,27.90
2018-08-17T11:45:24.597Z,27.84
2018-08-17T11:46:24.597Z,27.96
2018-08-17T11:47:24.593Z,27.92
2018-08-17T11:48:24.601Z,27.85
2018-08-17T11:49:24.596Z,27.93
2018-08-17T11:50:24.586Z,27.94
2018-08-17T11:51:24.584Z,27.93
2018-08-17T11:52:24.580Z,27.99
2018-08-17T11:53:24.582Z,28.00
2018-08-17T11:54:24.572Z,28.04
2018-08-17T11:55:24.567Z,28.15
2018-08-17T11:56:24.563Z,28.11
2018-08-17T11:57:24.565Z,28.12
2018-08-17T11:58:24.565Z,28.12
2018-08-17T11:59:24.560Z,28.15
2018-08-17T12:00:24.559Z,28.15
2018-08-17T12:01:24.550Z,28.17
2018-08-17T12:02:24.552Z,28.27
2018-08-17T12:03:24.541Z,28.22
2018-08-17T12:04:24.542Z,28.31
2018-08-17T12:05:24.539Z,28.29
2018-08-17T12:06:24.531Z,28.46
2018-08-17T12:07:24.536Z,28.36
2018-08-17T12:08:24.579Z,28.49
2018-08-17T12:09:24.523Z,28.52
2018-08-17T12:10:24.523Z,28.52
2018-08-17T12:11:24.523Z,28.33
2018-08-17T12:12:24.515Z,28.37
2018-08-17T12:13:24.506Z,27.97
2018-08-17T12:14:24.512Z,28.00
2018-08-17T12:15:24.508Z,28.06
2018-08-17T12:16:24.498Z,28.36
2018-08-17T12:17:24.500Z,28.30
2018-08-17T12:18:24.496Z,28.29
2018-08-17T12:19:24.496Z,28.34
2018-08-17T12:20:24.495Z,28.29
2018-08-17T12:21:24.485Z,28.34
2018-08-17T12:22:24.486Z,28.34
2018-08-17T12:23:24.483Z,28.30
2018-08-17T12:24:24.560Z,28.48
2018-08-17T12:25:24.480Z,28.49
2018-08-17T12:26:24.473Z,28.55
2018-08-17T12:27:24.471Z,28.67
2018-08-17T12:28:24.464Z,28.66
2018-08-17T12:29:24.470Z,28.61
2018-08-17T12:30:24.458Z,28.66
2018-08-17T12:31:24.458Z,28.67
2018-08-17T12:32:24.456Z,28.74
2018-08-17T12:33:24.452Z,28.68
2018-08-17T12:34:24.452Z,28.85
2018-08-17T12:35:24.447Z,28.80
2018-08-17T12:36:24.441Z,28.81
2018-08-17T12:37:24.437Z,28.86
2018-08-17T12:38:24.441Z,28.88
2018-08-17T12:39:24.435Z,28.90
2018-08-17T12:40:24.437Z,28.88
2018-08-17T12:41:24.432Z,28.81
2018-08-17T12:42:24.427Z,28.66
2018-08-17T12:43:24.424Z,28.74
2018-08-17T12:44:24.419Z,28.74
2018-08-17T12:45:24.416Z,28.71
2018-08-17T12:46:24.424Z,28.66
2018-08-17T12:47:24.414Z,28.62
2018-08-17T12:48:24.408Z,28.76
2018-08-17T12:49:24.414Z,28.74
2018-08-17T12:50:24.403Z,28.76
2018-08-17T12:51:24.399Z,28.81
2018-08-17T12:52:24.446Z,28.77